Jj Sky — VRJA6 — position and weather

sailwx.info

Track history (hours):
 
Tides and Currents Weather Stations Pressure Air Temp Water Temp Dewpoint Dewpoint Depression Visibility Wind Speed Wind Dir Waves Ship Positions

Jj Sky

Last reported at 2016-Feb-09 15:32 UTC. Time now 2016-Feb-09 15:53 UTC.
Position N 34°37' E 135°22'.

Length 148 m; draft 6.4 m.

Type: Ship (hazmat cat D). MMSI: 477397500.

Date/timePositionNaut miles runAvg speedWind from/ knotsBaromVisibWave heightAir tempDewpointWater temp
2016-Feb-09 15:32N 34°37' E 135°22'0 0.0
2016-Feb-09 13:19N 34°37' E 135°22'0 0.0
2016-Feb-09 12:24N 34°37' E 135°22'0 0.0
2016-Feb-09 11:24N 34°37' E 135°22'0 0.0
2016-Feb-09 10:11N 34°37' E 135°22'0 0.0
2016-Feb-09 09:29N 34°37' E 135°22'0 0.0
2016-Feb-09 08:29N 34°37' E 135°22'0 0.0
2016-Feb-09 07:28N 34°37' E 135°22'0 0.0
2016-Feb-09 06:28N 34°37' E 135°22'0 0.0
2016-Feb-09 05:21N 34°37' E 135°22'0 0.1
2016-Feb-09 04:15N 34°37' E 135°22'0 0.1
2016-Feb-09 03:32N 34°37' E 135°22'0 0.1
2016-Feb-09 02:26N 34°37' E 135°22'6 7.4
2016-Feb-09 01:33N 34°39' E 135°15'0 0.2
2016-Feb-09 00:30N 34°39' E 135°15'0 0.0
2016-Feb-08 23:30N 34°39' E 135°15'0 0.0
2016-Feb-08 22:29N 34°39' E 135°15'6 6.3
2016-Feb-08 21:32N 34°39' E 135°22'2 2.0
2016-Feb-08 20:30N 34°39' E 135°24'0 0.1
2016-Feb-08 19:33N 34°39' E 135°24'0 0.1
2016-Feb-08 18:33N 34°39' E 135°24'0 0.1
2016-Feb-08 17:33N 34°39' E 135°24'0 0.0
2016-Feb-08 16:33N 34°39' E 135°24'0 0.0
2016-Feb-08 15:33N 34°39' E 135°24'0 0.0
2016-Feb-08 14:33N 34°39' E 135°24'0 0.0
2016-Feb-08 13:33N 34°39' E 135°24'0 0.0
2016-Feb-08 12:33N 34°39' E 135°24'0 0.0
2016-Feb-08 11:33N 34°39' E 135°24'0 0.1
2016-Feb-08 10:33N 34°39' E 135°24'0 0.0
2016-Feb-08 09:33N 34°39' E 135°24'0 0.0
2016-Feb-08 08:33N 34°39' E 135°24'0 0.1
2016-Feb-08 07:33N 34°39' E 135°24'0 0.0
2016-Feb-08 06:33N 34°39' E 135°24'0 0.1
2016-Feb-08 05:33N 34°39' E 135°24'0 0.1
2016-Feb-08 04:33N 34°39' E 135°24'0 0.0
2016-Feb-08 03:33N 34°39' E 135°24'0 0.0
2016-Feb-08 02:33N 34°39' E 135°24'7 6.9
2016-Feb-08 01:33N 34°36' E 135°17'1515.1
2016-Feb-08 00:33N 34°37' E 134°58'24514.3
2016-Feb-07 07:24N 33°48' E 130°08'44815.4
2016-Feb-06 02:17N 31°17' E 121°48'7 0.5
2016-Feb-05 12:10N 31°20' E 121°40'4 5.1
2016-Feb-05 11:26N 31°19' E 121°45'  
2016-Feb-01 23:33N 35°01' E 138°32'  
Track history (hours):
 
Tides and Currents Weather Stations Pressure Air Temp Water Temp Dewpoint Dewpoint Depression Visibility Wind Speed Wind Dir Waves Ship Positions

Jj Sky

Last reported at 2016-Feb-09 15:32 UTC. Time now 2016-Feb-09 15:53 UTC.
Position N 34°37' E 135°22'.

Length 148 m; draft 6.4 m.

Type: Ship (hazmat cat D). MMSI: 477397500.

Date/timePositionNaut miles runAvg speedWind from/ knotsBaromVisibWave heightAir tempDewpointWater temp
2016-Feb-09 15:32N 34°37' E 135°22'0 0.0
2016-Feb-09 13:19N 34°37' E 135°22'0 0.0
2016-Feb-09 12:24N 34°37' E 135°22'0 0.0
2016-Feb-09 11:24N 34°37' E 135°22'0 0.0
2016-Feb-09 10:11N 34°37' E 135°22'0 0.0
2016-Feb-09 09:29N 34°37' E 135°22'0 0.0
2016-Feb-09 08:29N 34°37' E 135°22'0 0.0
2016-Feb-09 07:28N 34°37' E 135°22'0 0.0
2016-Feb-09 06:28N 34°37' E 135°22'0 0.0
2016-Feb-09 05:21N 34°37' E 135°22'0 0.1
2016-Feb-09 04:15N 34°37' E 135°22'0 0.1
2016-Feb-09 03:32N 34°37' E 135°22'0 0.1
2016-Feb-09 02:26N 34°37' E 135°22'6 7.4
2016-Feb-09 01:33N 34°39' E 135°15'0 0.2
2016-Feb-09 00:30N 34°39' E 135°15'0 0.0
2016-Feb-08 23:30N 34°39' E 135°15'0 0.0
2016-Feb-08 22:29N 34°39' E 135°15'6 6.3
2016-Feb-08 21:32N 34°39' E 135°22'2 2.0
2016-Feb-08 20:30N 34°39' E 135°24'0 0.1
2016-Feb-08 19:33N 34°39' E 135°24'0 0.1
2016-Feb-08 18:33N 34°39' E 135°24'0 0.1
2016-Feb-08 17:33N 34°39' E 135°24'0 0.0
2016-Feb-08 16:33N 34°39' E 135°24'0 0.0
2016-Feb-08 15:33N 34°39' E 135°24'0 0.0
2016-Feb-08 14:33N 34°39' E 135°24'0 0.0
2016-Feb-08 13:33N 34°39' E 135°24'0 0.0
2016-Feb-08 12:33N 34°39' E 135°24'0 0.0
2016-Feb-08 11:33N 34°39' E 135°24'0 0.1
2016-Feb-08 10:33N 34°39' E 135°24'0 0.0
2016-Feb-08 09:33N 34°39' E 135°24'0 0.0
2016-Feb-08 08:33N 34°39' E 135°24'0 0.1
2016-Feb-08 07:33N 34°39' E 135°24'0 0.0
2016-Feb-08 06:33N 34°39' E 135°24'0 0.1
2016-Feb-08 05:33N 34°39' E 135°24'0 0.1
2016-Feb-08 04:33N 34°39' E 135°24'0 0.0
2016-Feb-08 03:33N 34°39' E 135°24'0 0.0
2016-Feb-08 02:33N 34°39' E 135°24'7 6.9
2016-Feb-08 01:33N 34°36' E 135°17'1515.1
2016-Feb-08 00:33N 34°37' E 134°58'24514.3
2016-Feb-07 07:24N 33°48' E 130°08'44815.4
2016-Feb-06 02:17N 31°17' E 121°48'7 0.5
2016-Feb-05 12:10N 31°20' E 121°40'4 5.1
2016-Feb-05 11:26N 31°19' E 121°45'  
2016-Feb-01 23:33N 35°01' E 138°32'  

Dump ship's entire track history